• Join FlightAware (Why Join?)
  • Login
  • US Flag 
Gobble Gobble! 
05:31AM EST


 

Airport Tracker/Info


-or-


 

Live Flight TrackerFlight Track Log ✈ N60GS ✈ 14-Jun-2013 ✈ KTME - KDHN

Flight Track Log - Related Links

Times and Time Zones

All times are in EDT time to prevent confusion due to time zone crossing. See the N60GS flight status page for this flight to view local times or setup timezone preferences in your user account.

Time Position Orientation Groundspeed Altitude Reporting Facility
EDT Latitude Longitude Course Direction KTS MPH feet Rate Location/Type
02:06PM 29.7761 -95.8978 181° South 174 200 1,000  Level Houston Center
02:06PM 29.7531 -95.8981 181° South 180 207 1,800 1,140 Climbing Houston Center
02:08PM 29.6869 -95.8686 159° South 236 272 3,000 660 Climbing Houston Center
02:08PM 29.6431 -95.8386 149° Southeast 196 226 3,200 1,200 Climbing Houston Center
02:09PM 29.5819 -95.8361 178° South 214 246 5,300 1,980 Climbing Houston Center
02:10PM 29.5422 -95.7903 135° Southeast 206 237 7,300 1,980 Climbing Houston Center
02:11PM 29.5469 -95.7247 85° East 206 237 9,400 1,920 Climbing Houston Center
02:13PM 29.5594 -95.6467 80° East 202 232 11,800 1,860 Climbing Houston Center
02:14PM 29.5689 -95.5886 79° East 194 223 13,800 1,740 Climbing Houston Center
02:15PM 29.5769 -95.5372 80° East 178 205 15,400 1,320 Climbing Houston Center
02:16PM 29.5858 -95.4833 79° East 171 197 16,600 1,020 Climbing Houston Center
02:17PM 29.5956 -95.4200 80° East 185 213 17,600 1,080 Climbing Houston Center
02:18PM 29.6097 -95.3339 79° East 222 255 18,900 1,080 Climbing Houston Center
02:19PM 29.6217 -95.2603 79° East 232 267 19,900 960 Climbing Houston Center
02:20PM 29.6356 -95.1775 79° East 246 283 20,900 960 Climbing Houston Center
02:21PM 29.6478 -95.0942 80° East 255 293 22,000 1,020 Climbing Houston Center
02:22PM 29.6608 -95.0122 80° East 260 299 23,100 960 Climbing Houston Center
02:23PM 29.6731 -94.9311 80° East 259 298 24,100 840 Climbing Houston Center
02:24PM 29.6861 -94.8467 80° East 266 306 24,900 780 Climbing Houston Center
02:25PM 29.6997 -94.7603 80° East 274 315 25,800 780 Climbing Houston Center
02:26PM 29.7094 -94.6722 83° East 276 318 26,600 780 Climbing Houston Center
02:27PM 29.7131 -94.5650 88° East 279 321 27,500 840 Climbing Houston Center
02:28PM 29.7161 -94.4744 88° East 282 325 28,400 780 Climbing Houston Center
02:29PM 29.7189 -94.3833 88° East 284 327 29,200 840 Climbing Houston Center
02:30PM 29.7158 -94.2950 92° East 278 320 30,200 840 Climbing Houston Center
02:31PM 29.7053 -94.2089 98° East 273 314 31,000 360 Climbing Houston Center
02:32PM 29.6936 -94.1033 97° East 289 333 31,000  Level Houston Center
02:33PM 29.6856 -94.0025 95° East 314 361 31,000  Level Houston Center
02:35PM 29.6801 -93.9039 93° East  Level FlightAware Approximate
02:36PM 29.6842 -93.7911 93° East 332 382 31,000  Level Houston Center
02:37PM 29.6825 -93.6622 91° East 338 389 31,000 660 Level Houston Center
02:38PM 29.6825 -93.5597 90° East 324 373 32,400 1,320 Climbing Houston Center
02:39PM 29.6794 -93.4703 92° East 288 331 33,800 1,200 Climbing Houston Center
02:40PM 29.6783 -93.3900 91° East 259 298 34,900 540 Climbing Houston Center
02:41PM 29.6781 -93.3078 90° East 258 297 35,000  Climbing Houston Center
02:42PM 29.6756 -93.1939 91° East 295 339 35,000  Level Houston Center
02:43PM 29.6750 -93.0925 90° East 314 361 35,000  Level Houston Center
02:44PM 29.6731 -92.9844 91° East 335 386 35,000  Level Houston Center
02:45PM 29.6717 -92.8750 91° East 344 396 35,000  Level Houston Center
02:46PM 29.6692 -92.7647 91° East 346 398 35,000  Level Houston Center
02:47PM 29.6681 -92.6567 91° East 340 391 35,000  Level Houston Center
02:48PM 29.6650 -92.5269 92° East 339 390 35,000  Level Houston Center
02:49PM 29.6628 -92.4203 91° East 336 387 35,000  Level Houston Center
02:50PM 29.6778 -92.3161 81° East 331 381 35,000  Level Houston Center
02:51PM 29.7050 -92.2133 73° East 336 387 35,000  Level Houston Center
02:52PM 29.7331 -92.1094 73° East 339 390 35,000  Level Houston Center
02:53PM 29.7667 -91.9842 73° East 342 394 35,000  Level Houston Center
02:54PM 29.7947 -91.8814 73° East 340 391 35,000  Level Houston Center
02:55PM 29.8214 -91.7767 74° East 342 394 35,000  Level Houston Center
02:56PM 29.8497 -91.6739 72° East 339 390 35,000  Level Houston Center
02:57PM 29.8764 -91.5703 73° East 338 389 35,000  Level Houston Center
02:58PM 29.9086 -91.4458 73° East 338 389 35,000  Level Houston Center
02:59PM 29.9364 -91.3406 73° East 342 394 35,000  Level Houston Center
03:00PM 29.9647 -91.2369 72° East 342 394 35,000  Level Houston Center
03:01PM 29.9917 -91.1336 73° East 339 390 35,000  Level Houston Center
03:02PM 30.0189 -91.0300 73° East 338 389 35,000  Level Houston Center
03:04PM 30.0442 -90.9253 74° East 339 390 35,000  Level Houston Center
03:05PM 30.0775 -90.8011 73° East 339 390 35,000  Level Houston Center
03:06PM 30.1033 -90.6961 74° East 340 391 35,000  Level Houston Center
03:07PM 30.1297 -90.5919 74° East 340 391 35,000  Level Houston Center
03:08PM 30.1572 -90.4875 73° East 340 391 35,000  Level Houston Center
03:09PM 30.1839 -90.3825 74° East 341 392 35,000  Level Houston Center
03:10PM 30.2103 -90.2783 74° East 339 390 35,000  Level Houston Center
03:11PM 30.2411 -90.1533 74° East 337 388 35,000  Level Houston Center
03:12PM 30.2672 -90.0500 74° East 338 389 35,000  Level Houston Center
03:13PM 30.2922 -89.9467 74° East 336 387 35,000  Level Houston Center
03:14PM 30.3194 -89.8386 74° East 345 397 35,000  Level Houston Center
03:15PM 30.3447 -89.7339 74° East 342 394 35,000  Level Houston Center
03:16PM 30.3744 -89.6158 74° East 347 399 35,000  Level Houston Center
03:17PM 30.4003 -89.5106 74° East 344 396 35,000  Level Houston Center
03:18PM 30.4258 -89.4056 74° East 341 392 35,000  Level Houston Center
03:19PM 30.4567 -89.2786 74° East 342 394 35,000  Level Houston Center
03:20PM 30.4814 -89.1711 75° East 347 399 35,000  Level Houston Center
03:21PM 30.5061 -89.0647 75° East 344 396 35,000  Level Houston Center
03:22PM 30.5328 -88.9589 74° East 344 396 35,000  Level Houston Center
03:23PM 30.5592 -88.8406 75° East 347 399 35,000  Level Houston Center
03:24PM 30.5847 -88.7336 74° East 348 400 35,000  Level Houston Center
03:25PM 30.6114 -88.6261 74° East 348 400 35,000 -240 Level Houston Center
03:26PM 30.6361 -88.5186 75° East 347 399 34,600 -1,020 Descending Houston Center
03:27PM 30.6675 -88.3869 74° East 354 407 33,000 -1,380 Descending Houston Center
03:28PM 30.6931 -88.2789 75° East 351 404 31,800 -1,200 Descending Houston Center
03:29PM 30.7164 -88.1769 75° East 350 403 30,500 -1,380 Descending Houston Center
03:30PM 30.7467 -88.0475 75° East 348 400 29,000 -780 Descending Houston Center
03:31PM 30.7739 -87.9408 73° East 346 398 29,000  Level Houston Center
03:32PM 30.7964 -87.8347 76° East 340 391 29,000  Level Houston Center
03:34PM 30.8214 -87.7294 75° East 337 388 29,000  Level Houston Center
03:35PM 30.8458 -87.6208 75° East 337 388 29,000  Level Houston Center
03:35PM 30.8567 -87.5772 74° East 332 382 29,000  Level Jacksonville Center
03:36PM 30.8814 -87.4719 75° East 332 382 29,000  Level Jacksonville Center
03:37PM 30.8950 -87.4114 75° East 336 387 29,000 -480 Level Houston Center
03:38PM 30.9225 -87.2850 76° East 337 388 28,200 -1,140 Descending Houston Center
03:39PM 30.9481 -87.1733 75° East 353 406 26,700 -1,500 Descending Houston Center
03:40PM 30.9731 -87.0558 76° East 361 415 25,200 -1,500 Descending Houston Center
03:41PM 30.9975 -86.9442 76° East 357 411 23,700 -1,500 Descending Houston Center
03:42PM 31.0225 -86.8342 75° East 351 404 22,200 -1,440 Descending Houston Center
03:43PM 31.0461 -86.7236 76° East 339 390 20,700 -1,500 Descending Jacksonville Center
03:44PM 31.0703 -86.6156 75° East 339 390 19,200 -1,860 Descending Jacksonville Center
03:45PM 31.0942 -86.5047 76° East 328 377 17,000 -2,100 Descending Jacksonville Center
03:46PM 31.1086 -86.4350 76° East 311 358 15,700 -1,920 Descending Jacksonville Center
03:46PM 31.1178 -86.4086 68° East 318 366 15,100 -1,860 Descending Jacksonville Center
03:47PM 31.1325 -86.3317 77° East 305 351 13,600 -1,920 Descending Jacksonville Center
03:48PM 31.1564 -86.2158 76° East 306 352 11,300 -1,980 Descending Jacksonville Center
03:49PM 31.1669 -86.1264 82° East 286 329 9,400 -1,920 Descending Jacksonville Center
03:50PM 31.1797 -86.0369 80° East 282 325 7,600 -1,260 Descending Jacksonville Center
03:51PM 31.1983 -85.9553 75° East 267 307 7,000 -1,020 Descending Jacksonville Center
03:52PM 31.2256 -85.8711 69° East 257 296 5,600 -1,020 Descending Jacksonville Center
03:53PM 31.2417 -85.7986 75° East 250 288 5,000 -300 Descending Jacksonville Center
03:54PM 31.2536 -85.7383 77° East 228 262 5,000 -660 Level Jacksonville Center
03:55PM 31.2678 -85.6633 78° East 228 262 3,700 -1,140 Descending Jacksonville Center
03:56PM 31.2842 -85.5836 76° East 211 243 2,700 -720 Descending Jacksonville Center
03:57PM 31.2747 -85.5300 102° East 184 212 2,200 -420 Descending Jacksonville Center
03:58PM 31.2675 -85.4761 99° East 162 186 1,900 -480 Descending Jacksonville Center
03:59PM 31.2828 -85.4378 65° Northeast 123 142 1,300 -720 Descending Jacksonville Center
04:00PM 31.3119 -85.4408 355° North 111 128 500 -840 Descending Jacksonville Center
04:02PM 31.3167 -85.4333 North  Level FlightAware Approximate